sensor_id;sensor_type;location;lat;lon;timestamp;pressure;altitude;pressure_sealevel;temperature
38249;BMP280;24045;51.138;17.126;2023-08-30T00:10:29;99290.61;;;15.75
38249;BMP280;24045;51.138;17.126;2023-08-30T00:25:32;99288.25;;;15.73
38249;BMP280;24045;51.138;17.126;2023-08-30T00:40:39;99299.41;;;15.77
38249;BMP280;24045;51.138;17.126;2023-08-30T00:55:42;99291.39;;;15.76
38249;BMP280;24045;51.138;17.126;2023-08-30T01:10:54;99263.29;;;15.68
38249;BMP280;24045;51.138;17.126;2023-08-30T01:41:08;99292.44;;;15.59
38249;BMP280;24045;51.138;17.126;2023-08-30T01:56:11;99300.83;;;15.56
38249;BMP280;24045;51.138;17.126;2023-08-30T02:11:18;99296.31;;;15.55
38249;BMP280;24045;51.138;17.126;2023-08-30T02:26:22;99290.59;;;15.47
38249;BMP280;24045;51.138;17.126;2023-08-30T02:41:24;99289.34;;;15.38
38249;BMP280;24045;51.138;17.126;2023-08-30T02:56:27;99276.47;;;15.32
38249;BMP280;24045;51.138;17.126;2023-08-30T03:11:30;99271.21;;;15.28
38249;BMP280;24045;51.138;17.126;2023-08-30T03:26:33;99249.91;;;15.25
38249;BMP280;24045;51.138;17.126;2023-08-30T03:41:36;99242.60;;;15.15
38249;BMP280;24045;51.138;17.126;2023-08-30T03:56:39;99262.73;;;15.16
38249;BMP280;24045;51.138;17.126;2023-08-30T04:11:41;99266.44;;;15.13
38249;BMP280;24045;51.138;17.126;2023-08-30T04:26:45;99256.41;;;15.13
38249;BMP280;24045;51.138;17.126;2023-08-30T04:41:51;99273.14;;;15.19
38249;BMP280;24045;51.138;17.126;2023-08-30T04:56:55;99271.14;;;15.24
38249;BMP280;24045;51.138;17.126;2023-08-30T05:12:02;99271.32;;;15.26
38249;BMP280;24045;51.138;17.126;2023-08-30T05:27:05;99263.91;;;15.34
38249;BMP280;24045;51.138;17.126;2023-08-30T05:42:08;99266.80;;;15.54
38249;BMP280;24045;51.138;17.126;2023-08-30T05:57:11;99251.90;;;15.71
38249;BMP280;24045;51.138;17.126;2023-08-30T06:12:14;99269.73;;;15.96
38249;BMP280;24045;51.138;17.126;2023-08-30T06:27:17;99270.52;;;16.32
38249;BMP280;24045;51.138;17.126;2023-08-30T06:42:20;99286.13;;;16.54
38249;BMP280;24045;51.138;17.126;2023-08-30T06:57:23;99291.65;;;16.79
38249;BMP280;24045;51.138;17.126;2023-08-30T07:12:25;99311.87;;;16.77
38249;BMP280;24045;51.138;17.126;2023-08-30T07:27:28;99319.16;;;16.78
38249;BMP280;24045;51.138;17.126;2023-08-30T07:42:31;99328.67;;;16.79
38249;BMP280;24045;51.138;17.126;2023-08-30T07:57:34;99339.45;;;17.06
38249;BMP280;24045;51.138;17.126;2023-08-30T08:12:37;99341.70;;;17.12
38249;BMP280;24045;51.138;17.126;2023-08-30T08:27:40;99337.88;;;16.98
38249;BMP280;24045;51.138;17.126;2023-08-30T08:42:43;99339.23;;;16.86
38249;BMP280;24045;51.138;17.126;2023-08-30T08:57:48;99356.31;;;16.81
38249;BMP280;24045;51.138;17.126;2023-08-30T09:12:51;99375.20;;;16.88
38249;BMP280;24045;51.138;17.126;2023-08-30T09:27:57;99382.66;;;17.12
38249;BMP280;24045;51.138;17.126;2023-08-30T09:43:03;99378.68;;;17.28
38249;BMP280;24045;51.138;17.126;2023-08-30T09:58:14;99379.65;;;17.49
38249;BMP280;24045;51.138;17.126;2023-08-30T10:13:22;99369.94;;;17.30
38249;BMP280;24045;51.138;17.126;2023-08-30T10:28:26;99371.79;;;17.64
38249;BMP280;24045;51.138;17.126;2023-08-30T10:43:33;99371.91;;;17.74
38249;BMP280;24045;51.138;17.126;2023-08-30T10:58:41;99366.88;;;18.14
38249;BMP280;24045;51.138;17.126;2023-08-30T11:13:44;99385.52;;;18.93
38249;BMP280;24045;51.138;17.126;2023-08-30T11:28:47;99382.05;;;18.39
38249;BMP280;24045;51.138;17.126;2023-08-30T11:43:51;99389.21;;;18.32
38249;BMP280;24045;51.138;17.126;2023-08-30T11:58:54;99376.77;;;18.32
38249;BMP280;24045;51.138;17.126;2023-08-30T12:14:06;99371.27;;;19.47
38249;BMP280;24045;51.138;17.126;2023-08-30T12:29:09;99375.97;;;19.46
38249;BMP280;24045;51.138;17.126;2023-08-30T12:44:11;99374.25;;;19.03
38249;BMP280;24045;51.138;17.126;2023-08-30T12:59:14;99362.73;;;18.47
38249;BMP280;24045;51.138;17.126;2023-08-30T13:14:17;99367.05;;;19.41
38249;BMP280;24045;51.138;17.126;2023-08-30T13:29:20;99363.70;;;19.05
38249;BMP280;24045;51.138;17.126;2023-08-30T13:44:23;99361.17;;;19.80
38249;BMP280;24045;51.138;17.126;2023-08-30T13:59:25;99373.70;;;19.18
38249;BMP280;24045;51.138;17.126;2023-08-30T14:14:31;99368.82;;;18.71
38249;BMP280;24045;51.138;17.126;2023-08-30T14:29:33;99374.84;;;19.13
38249;BMP280;24045;51.138;17.126;2023-08-30T14:44:36;99369.70;;;19.14
38249;BMP280;24045;51.138;17.126;2023-08-30T14:59:39;99377.73;;;19.01
38249;BMP280;24045;51.138;17.126;2023-08-30T15:14:42;99391.42;;;19.11
38249;BMP280;24045;51.138;17.126;2023-08-30T15:29:47;99393.09;;;18.68
38249;BMP280;24045;51.138;17.126;2023-08-30T15:44:54;99391.41;;;18.60
38249;BMP280;24045;51.138;17.126;2023-08-30T15:59:57;99383.17;;;18.36
38249;BMP280;24045;51.138;17.126;2023-08-30T16:15:00;99392.95;;;18.22
38249;BMP280;24045;51.138;17.126;2023-08-30T16:30:04;99403.04;;;18.09
38249;BMP280;24045;51.138;17.126;2023-08-30T16:45:08;99418.77;;;17.93
38249;BMP280;24045;51.138;17.126;2023-08-30T17:00:11;99415.60;;;17.69
38249;BMP280;24045;51.138;17.126;2023-08-30T17:15:15;99417.29;;;17.51
38249;BMP280;24045;51.138;17.126;2023-08-30T17:30:17;99408.45;;;17.39
38249;BMP280;24045;51.138;17.126;2023-08-30T17:45:23;99409.89;;;17.16
38249;BMP280;24045;51.138;17.126;2023-08-30T18:00:25;99419.18;;;16.97
38249;BMP280;24045;51.138;17.126;2023-08-30T18:15:28;99433.46;;;16.59
38249;BMP280;24045;51.138;17.126;2023-08-30T18:30:31;99430.25;;;16.16
38249;BMP280;24045;51.138;17.126;2023-08-30T18:45:34;99436.36;;;15.85
38249;BMP280;24045;51.138;17.126;2023-08-30T19:00:38;99452.93;;;15.66
38249;BMP280;24045;51.138;17.126;2023-08-30T19:15:41;99449.23;;;15.57
38249;BMP280;24045;51.138;17.126;2023-08-30T19:30:44;99445.57;;;15.53
38249;BMP280;24045;51.138;17.126;2023-08-30T19:45:58;99447.40;;;15.58
38249;BMP280;24045;51.138;17.126;2023-08-30T20:01:03;99434.06;;;15.58
38249;BMP280;24045;51.138;17.126;2023-08-30T20:16:08;99439.22;;;15.56
38249;BMP280;24045;51.138;17.126;2023-08-30T20:31:11;99442.86;;;15.53
38249;BMP280;24045;51.138;17.126;2023-08-30T20:46:15;99447.70;;;15.48
38249;BMP280;24045;51.138;17.126;2023-08-30T21:01:18;99435.36;;;15.40
38249;BMP280;24045;51.138;17.126;2023-08-30T21:16:21;99443.27;;;15.34
38249;BMP280;24045;51.138;17.126;2023-08-30T21:31:24;99449.50;;;15.19
38249;BMP280;24045;51.138;17.126;2023-08-30T21:46:27;99458.40;;;15.12
38249;BMP280;24045;51.138;17.126;2023-08-30T22:01:31;99470.14;;;15.11
38249;BMP280;24045;51.138;17.126;2023-08-30T22:16:34;99483.17;;;15.12
38249;BMP280;24045;51.138;17.126;2023-08-30T22:31:37;99480.55;;;15.05
38249;BMP280;24045;51.138;17.126;2023-08-30T22:46:40;99476.91;;;14.94
38249;BMP280;24045;51.138;17.126;2023-08-30T23:01:43;99485.48;;;14.84
38249;BMP280;24045;51.138;17.126;2023-08-30T23:16:47;99479.95;;;14.86
38249;BMP280;24045;51.138;17.126;2023-08-30T23:31:50;99478.29;;;14.82
38249;BMP280;24045;51.138;17.126;2023-08-30T23:46:53;99474.04;;;14.74
